createdAt,value
2024-02-24T00:00:05.253Z,3.07
2024-02-24T00:01:36.495Z,4.16
2024-02-24T00:03:08.006Z,5.02
2024-02-24T00:04:39.496Z,3.68
2024-02-24T00:06:44.682Z,4.72
2024-02-24T00:08:16.880Z,2.88
2024-02-24T00:09:48.693Z,4.56
2024-02-24T00:11:20.059Z,4.05
2024-02-24T00:12:51.369Z,3.16
2024-02-24T00:14:22.824Z,3.42
2024-02-24T00:15:54.416Z,3.25
2024-02-24T00:17:26.011Z,3.97
2024-02-24T00:18:57.374Z,4.00
2024-02-24T00:20:28.708Z,3.48
2024-02-24T00:22:00.187Z,2.64
2024-02-24T00:23:31.724Z,3.31
2024-02-24T00:25:03.217Z,3.70
2024-02-24T00:26:34.633Z,2.54
2024-02-24T00:28:05.863Z,2.98
2024-02-24T00:29:37.088Z,3.25
2024-02-24T00:31:08.600Z,3.46
2024-02-24T00:32:39.838Z,3.09
2024-02-24T00:34:11.267Z,3.36
2024-02-24T00:35:42.646Z,3.40
2024-02-24T00:37:13.897Z,8.11
2024-02-24T00:38:45.708Z,4.39
2024-02-24T00:40:16.945Z,5.02
2024-02-24T00:41:48.319Z,3.31
2024-02-24T00:43:19.661Z,4.61
2024-02-24T00:44:50.930Z,3.20
2024-02-24T00:46:22.454Z,2.99
2024-02-24T00:47:53.887Z,3.31
2024-02-24T00:49:25.519Z,3.81
2024-02-24T00:51:01.942Z,2.89
2024-02-24T00:52:33.270Z,4.52
2024-02-24T00:54:04.493Z,3.14
2024-02-24T00:55:35.802Z,3.00
2024-02-24T00:57:07.132Z,2.88
2024-02-24T00:58:38.434Z,3.19
2024-02-24T01:00:09.932Z,4.81
2024-02-24T01:01:41.250Z,3.74
2024-02-24T01:03:12.520Z,3.10
2024-02-24T01:04:43.891Z,3.65
2024-02-24T01:06:15.181Z,4.43
2024-02-24T01:07:46.451Z,3.81
2024-02-24T01:09:17.699Z,3.53
2024-02-24T01:10:49.003Z,3.70
2024-02-24T01:12:20.364Z,2.48
2024-02-24T01:13:51.695Z,2.93
2024-02-24T01:15:24.887Z,3.36
2024-02-24T01:16:56.088Z,4.02
2024-02-24T01:18:27.447Z,3.52
2024-02-24T01:19:58.935Z,2.96
2024-02-24T01:21:30.407Z,3.20
2024-02-24T01:23:01.798Z,4.70
2024-02-24T01:24:33.113Z,2.54
2024-02-24T01:26:04.426Z,2.20
2024-02-24T01:27:35.750Z,2.80
2024-02-24T01:29:07.135Z,3.62
2024-02-24T01:30:38.488Z,3.27
2024-02-24T01:32:09.869Z,1.99
2024-02-24T01:33:41.261Z,2.69
2024-02-24T01:35:12.791Z,3.27
2024-02-24T01:36:44.034Z,2.69
2024-02-24T01:38:16.504Z,3.20
2024-02-24T01:39:47.845Z,2.89
2024-02-24T01:41:19.180Z,2.87
2024-02-24T01:42:50.577Z,3.17
2024-02-24T01:44:22.132Z,1.67
2024-02-24T01:45:53.412Z,2.21
2024-02-24T01:47:24.766Z,2.99
2024-02-24T01:48:56.419Z,2.59
2024-02-24T01:50:27.741Z,2.80
2024-02-24T01:51:59.043Z,2.12
2024-02-24T01:53:30.379Z,1.89
2024-02-24T01:55:01.908Z,2.75
2024-02-24T01:56:34.032Z,1.86
2024-02-24T01:58:05.383Z,3.15
2024-02-24T01:59:37.899Z,2.79
2024-02-24T02:01:09.637Z,2.24
2024-02-24T02:02:41.100Z,2.83
2024-02-24T02:04:12.540Z,2.45
2024-02-24T02:05:44.089Z,1.86
2024-02-24T02:07:20.501Z,2.40
2024-02-24T02:08:52.043Z,3.47
2024-02-24T02:10:23.447Z,5.08
2024-02-24T02:12:02.839Z,3.56
2024-02-24T02:13:35.090Z,4.78
2024-02-24T02:15:06.305Z,4.14
2024-02-24T02:16:37.518Z,3.02
2024-02-24T02:18:09.042Z,2.20
2024-02-24T02:19:40.613Z,2.37
2024-02-24T02:21:11.841Z,2.09
2024-02-24T02:22:43.054Z,2.37
2024-02-24T02:24:14.234Z,1.61
2024-02-24T02:25:45.712Z,1.81
2024-02-24T02:27:17.269Z,2.32
2024-02-24T02:28:48.431Z,2.05
2024-02-24T02:30:19.711Z,1.71
2024-02-24T02:31:50.954Z,3.17
2024-02-24T02:33:22.722Z,1.35
2024-02-24T02:34:58.994Z,1.17
2024-02-24T02:36:30.168Z,1.80
2024-02-24T02:38:01.556Z,2.92
2024-02-24T02:39:32.800Z,1.63
2024-02-24T02:41:09.008Z,2.07
2024-02-24T02:42:40.474Z,1.53
2024-02-24T02:44:11.805Z,2.28
2024-02-24T02:45:43.073Z,1.45
2024-02-24T02:47:19.906Z,1.55
2024-02-24T02:48:55.170Z,1.81
2024-02-24T02:50:26.794Z,2.38
2024-02-24T02:51:58.576Z,1.66
2024-02-24T02:53:52.401Z,1.87
2024-02-24T02:55:23.715Z,2.26
2024-02-24T02:56:54.893Z,1.62
2024-02-24T02:58:26.138Z,2.29
2024-02-24T02:59:57.313Z,1.93
2024-02-24T03:01:28.800Z,2.44
2024-02-24T03:02:59.989Z,3.30
2024-02-24T03:04:31.697Z,2.24
2024-02-24T03:06:03.224Z,2.06
2024-02-24T03:07:34.630Z,2.13
2024-02-24T03:09:05.859Z,2.06
2024-02-24T03:10:37.218Z,2.16
2024-02-24T03:12:08.606Z,2.63
2024-02-24T03:13:39.972Z,1.68
2024-02-24T03:15:11.335Z,1.91
2024-02-24T03:16:42.672Z,2.10
2024-02-24T03:18:13.991Z,2.55
2024-02-24T03:19:45.281Z,2.35
2024-02-24T03:21:16.540Z,1.86
2024-02-24T03:22:47.791Z,2.80
2024-02-24T03:24:18.943Z,1.53
2024-02-24T03:25:50.170Z,1.66
2024-02-24T03:27:26.608Z,1.78
2024-02-24T03:28:57.884Z,2.18
2024-02-24T03:30:29.332Z,2.22
2024-02-24T03:32:00.601Z,2.18
2024-02-24T03:33:31.903Z,1.90
2024-02-24T03:35:03.513Z,1.78
2024-02-24T03:36:34.798Z,1.95
2024-02-24T03:38:06.271Z,1.49
2024-02-24T03:39:37.659Z,1.71
2024-02-24T03:41:08.880Z,2.00
2024-02-24T03:42:40.138Z,2.11
2024-02-24T03:44:11.462Z,1.36
2024-02-24T03:45:42.816Z,1.60
2024-02-24T03:47:14.182Z,2.03
2024-02-24T03:48:45.520Z,2.04
2024-02-24T03:50:16.818Z,1.74
2024-02-24T03:51:48.134Z,2.39
2024-02-24T03:53:19.489Z,1.40
2024-02-24T03:54:50.847Z,1.45
2024-02-24T03:56:22.229Z,2.87
2024-02-24T03:57:53.544Z,1.81
2024-02-24T03:59:24.873Z,2.04
2024-02-24T04:00:56.353Z,1.85
2024-02-24T04:02:27.815Z,1.89
2024-02-24T04:04:50.195Z,1.98
2024-02-24T04:06:24.468Z,2.99
2024-02-24T04:07:56.017Z,2.33
2024-02-24T04:09:27.365Z,1.87
2024-02-24T04:10:58.638Z,1.67
2024-02-24T04:12:29.985Z,1.31
2024-02-24T04:14:01.205Z,1.98
2024-02-24T04:15:32.699Z,2.89
2024-02-24T04:17:03.955Z,1.85
2024-02-24T04:18:35.244Z,1.37
2024-02-24T04:20:06.538Z,2.04
2024-02-24T04:21:37.767Z,2.15
2024-02-24T04:23:09.244Z,2.82
2024-02-24T04:24:40.813Z,1.42
2024-02-24T04:26:12.162Z,1.42
2024-02-24T04:27:43.420Z,1.44
2024-02-24T04:29:14.814Z,1.37
2024-02-24T04:30:46.119Z,2.27
2024-02-24T04:32:17.652Z,2.94
2024-02-24T04:33:49.202Z,1.85
2024-02-24T04:35:20.609Z,1.13
2024-02-24T04:36:51.922Z,2.73
2024-02-24T04:38:23.445Z,1.66
2024-02-24T04:39:54.879Z,1.91
2024-02-24T04:41:26.388Z,1.39
2024-02-24T04:42:57.621Z,1.08
2024-02-24T04:44:28.943Z,1.39
2024-02-24T04:46:00.191Z,1.38
2024-02-24T04:47:31.563Z,1.45
2024-02-24T04:49:03.130Z,2.03
2024-02-24T04:50:34.541Z,2.25
2024-02-24T04:52:05.784Z,2.25
2024-02-24T04:53:37.088Z,1.88
2024-02-24T04:55:08.527Z,1.38
2024-02-24T04:56:40.088Z,1.82
2024-02-24T04:58:11.608Z,1.86
2024-02-24T04:59:43.282Z,1.92
2024-02-24T05:01:14.674Z,2.18
2024-02-24T05:02:46.009Z,2.14
2024-02-24T05:04:17.331Z,2.22
2024-02-24T05:05:48.664Z,1.53
2024-02-24T05:07:19.933Z,1.91
2024-02-24T05:08:51.461Z,1.95
2024-02-24T05:10:22.680Z,2.43
2024-02-24T05:11:54.026Z,2.10
2024-02-24T05:13:25.509Z,1.47
2024-02-24T05:14:57.040Z,1.51
2024-02-24T05:16:28.322Z,2.06
2024-02-24T05:17:59.771Z,1.26
2024-02-24T05:19:31.240Z,1.35
2024-02-24T05:21:02.432Z,2.06
2024-02-24T05:22:33.612Z,1.50
2024-02-24T05:24:04.939Z,1.65
2024-02-24T05:25:36.288Z,2.43
2024-02-24T05:27:07.541Z,2.12
2024-02-24T05:28:38.978Z,1.84
2024-02-24T05:30:10.369Z,2.59
2024-02-24T05:31:41.701Z,1.73
2024-02-24T05:33:13.303Z,1.55
2024-02-24T05:34:44.806Z,2.00
2024-02-24T05:36:16.206Z,1.92
2024-02-24T05:37:47.661Z,1.41
2024-02-24T05:39:18.970Z,2.32
2024-02-24T05:40:50.324Z,1.72
2024-02-24T05:42:21.792Z,1.69
2024-02-24T05:43:53.257Z,2.21
2024-02-24T05:45:24.647Z,1.54
2024-02-24T05:46:55.921Z,1.84
2024-02-24T05:48:27.157Z,1.58
2024-02-24T05:49:58.671Z,1.85
2024-02-24T05:51:30.001Z,2.35
2024-02-24T05:53:01.674Z,2.66
2024-02-24T05:54:33.018Z,1.72
2024-02-24T05:56:04.546Z,3.42
2024-02-24T05:57:35.864Z,5.05
2024-02-24T05:59:07.205Z,2.63
2024-02-24T06:00:38.800Z,3.07
2024-02-24T06:02:10.268Z,2.81
2024-02-24T06:03:41.837Z,1.59
2024-02-24T06:05:13.437Z,1.32
2024-02-24T06:06:44.896Z,1.70
2024-02-24T06:08:16.201Z,2.44
2024-02-24T06:09:47.542Z,1.56
2024-02-24T06:11:18.979Z,1.76
2024-02-24T06:12:50.486Z,1.72
2024-02-24T06:14:21.767Z,1.93
2024-02-24T06:15:54.198Z,2.70
2024-02-24T06:17:25.640Z,3.60
2024-02-24T06:18:57.098Z,2.82
2024-02-24T06:20:28.428Z,2.04
2024-02-24T06:21:59.831Z,1.78
2024-02-24T06:23:31.387Z,2.09
2024-02-24T06:25:02.665Z,2.25
2024-02-24T06:26:34.119Z,1.82
2024-02-24T06:28:05.668Z,2.02
2024-02-24T06:29:37.090Z,2.00
2024-02-24T06:31:08.939Z,2.65
2024-02-24T06:32:40.448Z,3.16
2024-02-24T06:34:11.827Z,3.22
2024-02-24T06:35:43.333Z,1.83
2024-02-24T06:37:14.908Z,2.25
2024-02-24T06:38:46.663Z,2.21
2024-02-24T06:40:26.042Z,1.96
2024-02-24T06:42:04.336Z,1.62
2024-02-24T06:43:35.677Z,2.42
2024-02-24T06:45:07.111Z,2.76
2024-02-24T06:46:38.544Z,2.36
2024-02-24T06:48:10.761Z,2.51
2024-02-24T06:49:42.425Z,2.36
2024-02-24T06:51:13.768Z,2.54
2024-02-24T06:53:00.316Z,2.21
2024-02-24T06:54:31.591Z,2.11
2024-02-24T06:56:02.849Z,1.75
2024-02-24T06:57:34.354Z,1.49
2024-02-24T06:59:05.712Z,2.24
2024-02-24T07:00:37.158Z,1.81
2024-02-24T07:02:08.723Z,1.87
2024-02-24T07:03:40.351Z,1.71
2024-02-24T07:05:11.882Z,1.67
2024-02-24T07:06:43.701Z,1.78
2024-02-24T07:08:15.345Z,2.09
2024-02-24T07:09:46.696Z,2.74
2024-02-24T07:11:18.197Z,2.33
2024-02-24T07:12:49.787Z,3.08
2024-02-24T07:14:21.450Z,2.13
2024-02-24T07:15:52.861Z,2.51
2024-02-24T07:17:24.318Z,1.69
2024-02-24T07:18:55.768Z,1.73
2024-02-24T07:20:27.172Z,2.00
2024-02-24T07:21:58.720Z,1.65
2024-02-24T07:23:30.438Z,2.00
2024-02-24T07:25:01.768Z,3.37
2024-02-24T07:26:33.047Z,3.52
2024-02-24T07:28:04.313Z,2.66
2024-02-24T07:29:35.537Z,2.30
2024-02-24T07:31:06.864Z,2.26
2024-02-24T07:32:41.096Z,1.75
2024-02-24T07:34:45.244Z,2.44
2024-02-24T07:36:16.710Z,2.41
2024-02-24T07:37:47.986Z,2.23
2024-02-24T07:39:19.380Z,2.29
2024-02-24T07:40:50.769Z,2.95
2024-02-24T07:42:22.056Z,2.86
2024-02-24T07:43:53.221Z,3.09
2024-02-24T07:45:24.416Z,2.01
2024-02-24T07:46:55.839Z,3.23
2024-02-24T07:48:27.430Z,2.43
2024-02-24T07:49:58.959Z,2.42
2024-02-24T07:51:30.286Z,3.22
2024-02-24T07:53:11.727Z,2.84
2024-02-24T07:54:43.168Z,2.62
2024-02-24T07:56:14.963Z,2.53
2024-02-24T07:57:46.334Z,3.05
2024-02-24T07:59:17.651Z,2.38
2024-02-24T08:00:52.131Z,3.10
2024-02-24T08:02:25.330Z,3.68
2024-02-24T08:03:56.837Z,4.33
2024-02-24T08:05:58.283Z,7.34
2024-02-24T08:07:29.729Z,7.40
2024-02-24T08:09:01.338Z,4.31
2024-02-24T08:10:32.771Z,3.38
2024-02-24T08:12:04.321Z,3.58
2024-02-24T08:13:35.641Z,3.60
2024-02-24T08:15:07.222Z,4.29
2024-02-24T08:16:38.528Z,3.32
2024-02-24T08:18:10.180Z,3.34
2024-02-24T08:19:41.593Z,4.10
2024-02-24T08:21:12.846Z,4.17
2024-02-24T08:22:44.263Z,2.40
2024-02-24T08:24:15.521Z,2.73
2024-02-24T08:25:47.056Z,2.89
2024-02-24T08:27:18.726Z,2.74
2024-02-24T08:29:23.395Z,2.86
2024-02-24T08:30:54.703Z,3.21
2024-02-24T08:32:26.207Z,3.47
2024-02-24T08:33:57.695Z,3.29
2024-02-24T08:35:29.118Z,4.47
2024-02-24T08:37:00.520Z,2.82
2024-02-24T08:38:31.907Z,3.36
2024-02-24T08:40:03.195Z,2.65
2024-02-24T08:41:34.538Z,2.64
2024-02-24T08:43:05.896Z,2.94
2024-02-24T08:44:37.548Z,2.64
2024-02-24T08:46:12.141Z,2.63
2024-02-24T08:47:54.074Z,2.67
2024-02-24T08:49:25.559Z,3.16
2024-02-24T08:50:57.368Z,3.31
2024-02-24T08:52:35.656Z,2.45
2024-02-24T08:54:14.246Z,3.43
2024-02-24T08:55:45.467Z,3.46
2024-02-24T08:57:16.807Z,6.08
2024-02-24T08:58:48.153Z,7.37
2024-02-24T09:00:19.490Z,3.37
2024-02-24T09:01:50.857Z,2.66
2024-02-24T09:03:23.311Z,3.50
2024-02-24T09:04:56.540Z,2.62
2024-02-24T09:06:33.346Z,2.83
2024-02-24T09:08:04.782Z,2.54
2024-02-24T09:09:36.100Z,3.70
2024-02-24T09:11:07.704Z,2.64
2024-02-24T09:12:39.118Z,2.07
2024-02-24T09:14:10.424Z,2.48
2024-02-24T09:15:42.016Z,2.22
2024-02-24T09:17:13.414Z,1.31
2024-02-24T09:18:44.834Z,2.11
2024-02-24T09:20:22.247Z,2.37
2024-02-24T09:21:53.806Z,2.26
2024-02-24T09:23:25.179Z,1.50
2024-02-24T09:24:56.461Z,2.10
2024-02-24T09:26:27.886Z,1.62
2024-02-24T09:27:59.258Z,1.76
2024-02-24T09:29:30.511Z,2.53
2024-02-24T09:31:01.886Z,1.92
2024-02-24T09:32:33.319Z,1.86
2024-02-24T09:34:05.620Z,1.28
2024-02-24T09:35:38.452Z,1.72
2024-02-24T09:37:09.829Z,2.11
2024-02-24T09:38:41.311Z,1.78
2024-02-24T09:40:12.680Z,1.77
2024-02-24T09:41:43.937Z,1.97
2024-02-24T09:43:15.188Z,2.28
2024-02-24T09:44:46.556Z,1.94
2024-02-24T09:46:17.826Z,2.00
2024-02-24T09:47:49.441Z,1.36
2024-02-24T09:49:20.778Z,1.21
2024-02-24T09:50:52.157Z,1.75
2024-02-24T09:52:23.584Z,2.55
2024-02-24T09:53:54.926Z,1.78
2024-02-24T09:55:26.715Z,1.59
2024-02-24T09:56:58.438Z,1.77
2024-02-24T09:58:31.169Z,2.65
2024-02-24T10:00:02.471Z,2.37
2024-02-24T10:01:33.788Z,2.06
2024-02-24T10:03:05.259Z,2.70
2024-02-24T10:04:36.830Z,1.98
2024-02-24T10:06:08.070Z,1.66
2024-02-24T10:07:39.574Z,1.45
2024-02-24T10:09:10.889Z,2.09
2024-02-24T10:10:42.488Z,1.38
2024-02-24T10:12:13.824Z,1.71
2024-02-24T10:13:45.913Z,1.58
2024-02-24T10:15:17.995Z,1.33
2024-02-24T10:16:49.305Z,1.45
2024-02-24T10:18:21.118Z,2.32
2024-02-24T10:19:52.559Z,2.20
2024-02-24T10:21:23.792Z,1.97
2024-02-24T10:22:55.373Z,2.80
2024-02-24T10:26:42.804Z,1.68
2024-02-24T10:28:14.379Z,1.91
2024-02-24T10:29:47.257Z,1.66
2024-02-24T10:31:19.053Z,1.91
2024-02-24T10:32:50.983Z,1.47
2024-02-24T10:34:23.251Z,1.41
2024-02-24T10:35:55.134Z,1.66
2024-02-24T10:37:26.694Z,2.87
2024-02-24T10:38:58.851Z,3.15
2024-02-24T10:41:11.443Z,1.78
2024-02-24T10:42:43.255Z,2.49
2024-02-24T10:44:22.334Z,2.30
2024-02-24T10:45:55.162Z,3.11
2024-02-24T10:47:26.910Z,2.04
2024-02-24T10:48:58.796Z,2.93
2024-02-24T10:50:30.504Z,2.08
2024-02-24T10:52:02.521Z,2.22
2024-02-24T10:53:34.360Z,1.22
2024-02-24T10:55:05.780Z,1.32
2024-02-24T10:56:37.616Z,2.21
2024-02-24T10:58:09.373Z,2.90
2024-02-24T10:59:41.009Z,2.33
2024-02-24T11:01:14.578Z,2.49
2024-02-24T11:02:46.446Z,2.83
2024-02-24T11:04:17.991Z,3.23
2024-02-24T11:05:50.188Z,2.38
2024-02-24T11:07:22.720Z,3.25
2024-02-24T11:08:54.495Z,2.22
2024-02-24T11:10:26.221Z,3.65
2024-02-24T11:12:14.040Z,2.92
2024-02-24T11:13:55.838Z,2.98
2024-02-24T11:15:37.283Z,2.92
2024-02-24T11:17:09.471Z,1.65
2024-02-24T11:18:41.045Z,2.91
2024-02-24T11:20:25.638Z,3.40
2024-02-24T11:21:57.223Z,3.38
2024-02-24T11:23:29.859Z,3.58
2024-02-24T11:25:01.223Z,3.45
2024-02-24T11:26:54.010Z,3.66
2024-02-24T11:28:25.754Z,3.09
2024-02-24T11:30:15.072Z,4.44
2024-02-24T11:31:46.922Z,3.86
2024-02-24T11:33:18.770Z,4.20
2024-02-24T11:34:50.494Z,5.14
2024-02-24T11:36:21.715Z,5.10
2024-02-24T11:37:53.058Z,4.26
2024-02-24T11:39:24.340Z,4.76
2024-02-24T11:41:43.712Z,4.15
2024-02-24T11:43:18.832Z,3.48
2024-02-24T11:44:50.294Z,3.50
2024-02-24T11:46:21.861Z,4.14
2024-02-24T11:50:02.909Z,5.87
2024-02-24T11:51:34.700Z,5.24
2024-02-24T11:53:06.375Z,8.26
2024-02-24T11:54:37.982Z,3.75
2024-02-24T11:56:09.932Z,3.49
2024-02-24T11:57:41.657Z,2.53
2024-02-24T11:59:13.338Z,3.34
2024-02-24T12:01:04.657Z,4.40
2024-02-24T12:02:36.340Z,4.15
2024-02-24T12:04:12.880Z,4.09
2024-02-24T12:05:44.949Z,5.53
2024-02-24T12:07:17.029Z,4.33
2024-02-24T12:08:48.590Z,3.16
2024-02-24T12:10:19.999Z,3.79
2024-02-24T12:11:51.884Z,4.35
2024-02-24T12:13:23.610Z,4.60
2024-02-24T12:14:55.128Z,3.27
2024-02-24T12:16:26.453Z,5.00
2024-02-24T12:17:57.847Z,6.24
2024-02-24T12:19:29.819Z,11.01
2024-02-24T12:21:01.456Z,10.67
2024-02-24T12:22:32.927Z,5.66
2024-02-24T12:24:04.275Z,5.77
2024-02-24T12:25:35.965Z,8.84
2024-02-24T12:27:07.355Z,8.54
2024-02-24T12:28:38.928Z,8.88
2024-02-24T12:30:10.252Z,5.64
2024-02-24T12:31:41.510Z,4.18
2024-02-24T12:33:16.967Z,3.66
2024-02-24T12:34:49.667Z,3.32
2024-02-24T12:36:21.210Z,3.66
2024-02-24T12:37:52.674Z,4.00
2024-02-24T12:39:24.002Z,3.53
2024-02-24T12:40:55.321Z,2.68
2024-02-24T12:42:27.931Z,2.21
2024-02-24T12:44:29.276Z,1.53
2024-02-24T12:46:28.487Z,2.28
2024-02-24T12:47:59.916Z,1.52
2024-02-24T12:49:53.568Z,1.52
2024-02-24T12:53:36.440Z,1.59
2024-02-24T12:55:08.196Z,2.32
2024-02-24T12:56:39.885Z,2.76
2024-02-24T12:58:11.691Z,2.48
2024-02-24T13:00:14.462Z,5.33
2024-02-24T13:02:18.243Z,2.80
2024-02-24T13:03:50.062Z,2.54
2024-02-24T13:05:21.726Z,3.01
2024-02-24T13:06:53.964Z,2.04
2024-02-24T13:08:25.885Z,1.33
2024-02-24T13:09:57.623Z,1.25
2024-02-24T13:11:29.464Z,1.72
2024-02-24T13:13:01.970Z,2.08
2024-02-24T13:14:44.679Z,1.39
2024-02-24T13:16:16.139Z,1.92
2024-02-24T13:17:47.644Z,2.35
2024-02-24T13:19:19.118Z,2.20
2024-02-24T13:20:50.471Z,2.94
2024-02-24T13:22:22.111Z,2.85
2024-02-24T13:24:13.489Z,2.39
2024-02-24T13:25:44.997Z,1.94
2024-02-24T13:27:16.601Z,1.89
2024-02-24T13:29:18.974Z,1.85
2024-02-24T13:31:02.571Z,1.78
2024-02-24T13:32:34.563Z,1.90
2024-02-24T13:34:06.181Z,2.15
2024-02-24T13:35:38.467Z,2.70
2024-02-24T13:37:09.842Z,2.34
2024-02-24T13:38:41.323Z,2.78
2024-02-24T13:40:38.092Z,1.19
2024-02-24T13:42:09.590Z,2.68
2024-02-24T13:43:41.341Z,1.82
2024-02-24T13:45:13.033Z,1.93
2024-02-24T13:46:45.640Z,2.76
2024-02-24T13:48:17.620Z,2.19
2024-02-24T13:49:54.658Z,1.76
2024-02-24T13:51:27.879Z,2.87
2024-02-24T13:52:59.413Z,2.47
2024-02-24T13:54:30.829Z,2.33
2024-02-24T13:56:02.551Z,3.49
2024-02-24T13:57:33.981Z,3.79
2024-02-24T13:59:05.321Z,4.87
2024-02-24T14:00:36.599Z,1.75
2024-02-24T14:02:08.086Z,1.91
2024-02-24T14:04:15.557Z,1.71
2024-02-24T14:05:47.628Z,3.21
2024-02-24T14:07:19.719Z,2.56
2024-02-24T14:08:51.906Z,2.88
2024-02-24T14:10:23.541Z,2.30
2024-02-24T14:11:55.436Z,2.29
2024-02-24T14:13:29.662Z,2.77
2024-02-24T14:15:07.967Z,2.09
2024-02-24T14:16:39.361Z,2.64
2024-02-24T14:18:11.315Z,2.72
2024-02-24T14:19:42.706Z,2.82
2024-02-24T14:21:14.470Z,3.18
2024-02-24T14:22:45.859Z,2.93
2024-02-24T14:24:42.903Z,1.79
2024-02-24T14:26:23.025Z,1.78
2024-02-24T14:27:54.901Z,2.05
2024-02-24T14:29:26.474Z,1.76
2024-02-24T14:30:58.318Z,1.82
2024-02-24T14:32:30.069Z,2.22
2024-02-24T14:34:02.088Z,1.65
2024-02-24T14:35:33.831Z,2.19
2024-02-24T14:37:05.621Z,2.91
2024-02-24T14:38:37.484Z,1.59
2024-02-24T14:40:09.423Z,2.27
2024-02-24T14:41:46.629Z,2.93
2024-02-24T14:43:18.247Z,2.50
2024-02-24T14:44:49.883Z,1.69
2024-02-24T14:46:21.435Z,1.77
2024-02-24T14:47:52.994Z,2.01
2024-02-24T14:51:37.107Z,2.52
2024-02-24T14:53:08.743Z,3.10
2024-02-24T14:54:43.721Z,2.81
2024-02-24T14:56:15.440Z,2.28
2024-02-24T14:57:47.280Z,2.03
2024-02-24T14:59:18.818Z,1.63
2024-02-24T15:00:50.814Z,1.82
2024-02-24T15:02:35.540Z,2.47
2024-02-24T15:04:18.810Z,2.24
2024-02-24T15:05:50.982Z,2.84
2024-02-24T15:07:22.987Z,2.31
2024-02-24T15:08:55.004Z,2.13
2024-02-24T15:10:26.856Z,1.76
2024-02-24T15:12:35.860Z,2.32
2024-02-24T15:14:07.984Z,2.51
2024-02-24T15:15:39.750Z,2.80
2024-02-24T15:17:11.738Z,2.82
2024-02-24T15:18:44.190Z,2.07
2024-02-24T15:20:54.312Z,1.92
2024-02-24T15:22:25.842Z,1.27
2024-02-24T15:23:57.515Z,1.56
2024-02-24T15:25:29.190Z,1.45
2024-02-24T15:27:00.492Z,1.81
2024-02-24T15:28:31.801Z,1.30
2024-02-24T15:30:03.308Z,1.65
2024-02-24T15:31:34.540Z,1.21
2024-02-24T15:33:05.966Z,3.45
2024-02-24T15:34:51.040Z,2.20
2024-02-24T15:36:22.767Z,1.90
2024-02-24T15:37:54.659Z,2.21
2024-02-24T15:39:26.728Z,2.61
2024-02-24T15:41:09.426Z,3.13
2024-02-24T15:42:41.176Z,2.52
2024-02-24T15:44:14.161Z,1.65
2024-02-24T15:45:55.732Z,1.68
2024-02-24T15:47:27.620Z,1.72
2024-02-24T15:48:59.264Z,1.32
2024-02-24T15:50:31.125Z,1.78
2024-02-24T15:52:02.791Z,1.67
2024-02-24T15:53:34.391Z,1.61
2024-02-24T15:55:06.047Z,2.61
2024-02-24T15:56:37.392Z,2.21
2024-02-24T15:58:33.639Z,2.45
2024-02-24T16:00:05.092Z,1.14
2024-02-24T16:01:36.800Z,1.74
2024-02-24T16:03:08.887Z,1.02
2024-02-24T16:04:40.544Z,1.79
2024-02-24T16:06:12.420Z,1.85
2024-02-24T16:07:44.392Z,3.07
2024-02-24T16:09:21.060Z,4.18
2024-02-24T16:10:52.667Z,2.75
2024-02-24T16:12:37.009Z,1.53
2024-02-24T16:14:13.845Z,2.13
2024-02-24T16:15:45.510Z,1.59
2024-02-24T16:17:17.434Z,2.49
2024-02-24T16:18:49.468Z,1.83
2024-02-24T16:20:21.183Z,1.97
2024-02-24T16:21:52.653Z,2.16
2024-02-24T16:23:23.966Z,3.92
2024-02-24T16:25:25.649Z,2.31
2024-02-24T16:26:57.458Z,2.09
2024-02-24T16:28:29.264Z,2.95
2024-02-24T16:30:00.715Z,2.95
2024-02-24T16:32:18.903Z,2.23
2024-02-24T16:33:50.735Z,2.21
2024-02-24T16:35:22.732Z,3.86
2024-02-24T16:36:54.489Z,5.81
2024-02-24T16:38:26.403Z,2.96
2024-02-24T16:39:58.137Z,2.70
2024-02-24T16:41:29.527Z,3.26
2024-02-24T16:43:10.817Z,2.46
2024-02-24T16:45:07.153Z,3.67
2024-02-24T16:46:39.244Z,2.62
2024-02-24T16:48:11.315Z,2.61
2024-02-24T16:49:43.176Z,3.45
2024-02-24T16:51:14.362Z,3.55
2024-02-24T16:52:45.546Z,4.11
2024-02-24T16:54:16.788Z,3.09
2024-02-24T16:55:48.185Z,2.72
2024-02-24T16:57:19.643Z,3.58
2024-02-24T16:58:50.996Z,3.06
2024-02-24T17:00:22.242Z,4.15
2024-02-24T17:01:53.552Z,2.72
2024-02-24T17:03:24.901Z,3.70
2024-02-24T17:05:06.423Z,2.75
2024-02-24T17:06:37.989Z,3.40
2024-02-24T17:08:09.353Z,3.13
2024-02-24T17:09:41.066Z,2.94
2024-02-24T17:11:12.292Z,2.83
2024-02-24T17:12:43.687Z,2.33
2024-02-24T17:14:15.081Z,4.27
2024-02-24T17:15:46.347Z,4.79
2024-02-24T17:17:17.693Z,3.76
2024-02-24T17:18:49.101Z,4.27
2024-02-24T17:20:20.852Z,4.41
2024-02-24T17:21:52.394Z,4.18
2024-02-24T17:23:23.832Z,3.42
2024-02-24T17:27:08.098Z,3.45
2024-02-24T17:28:39.472Z,4.17
2024-02-24T17:30:10.730Z,5.24
2024-02-24T17:31:42.004Z,3.97
2024-02-24T17:33:13.492Z,3.18
2024-02-24T17:34:44.937Z,3.37
2024-02-24T17:36:26.333Z,3.30
2024-02-24T17:37:57.571Z,3.47
2024-02-24T17:39:28.769Z,4.91
2024-02-24T17:41:01.510Z,3.70
2024-02-24T17:42:32.908Z,3.89
2024-02-24T17:44:04.025Z,3.93
2024-02-24T17:45:35.209Z,5.50
2024-02-24T17:47:06.769Z,4.19
2024-02-24T17:48:38.086Z,3.47
2024-02-24T17:50:09.447Z,3.22
2024-02-24T17:51:56.040Z,4.36
2024-02-24T17:53:29.121Z,3.16
2024-02-24T17:55:01.011Z,4.55
2024-02-24T17:56:32.920Z,2.92
2024-02-24T17:58:04.165Z,5.40
2024-02-24T17:59:35.622Z,4.19
2024-02-24T18:01:07.157Z,3.61
2024-02-24T18:02:38.640Z,3.95
2024-02-24T18:04:10.084Z,4.01
2024-02-24T18:05:41.910Z,3.39
2024-02-24T18:07:13.287Z,4.29
2024-02-24T18:08:44.666Z,3.92
2024-02-24T18:10:15.924Z,3.72
2024-02-24T18:11:47.162Z,3.16
2024-02-24T18:13:18.517Z,2.96
2024-02-24T18:14:52.083Z,3.36
2024-02-24T18:16:24.928Z,3.32
2024-02-24T18:17:56.877Z,4.68
2024-02-24T18:19:28.289Z,4.15
2024-02-24T18:20:59.519Z,4.13
2024-02-24T18:22:31.096Z,3.65
2024-02-24T18:24:02.474Z,2.18
2024-02-24T18:25:33.879Z,2.63
2024-02-24T18:27:05.141Z,2.67
2024-02-24T18:28:36.384Z,4.45
2024-02-24T18:30:07.923Z,3.20
2024-02-24T18:31:40.512Z,4.11
2024-02-24T18:33:12.194Z,3.32
2024-02-24T18:34:43.679Z,3.53
2024-02-24T18:36:15.115Z,4.26
2024-02-24T18:37:46.404Z,4.56
2024-02-24T18:39:17.791Z,3.30
2024-02-24T18:40:49.261Z,3.28
2024-02-24T18:42:20.533Z,3.44
2024-02-24T18:43:52.014Z,3.62
2024-02-24T18:45:23.247Z,2.95
2024-02-24T18:47:12.741Z,3.61
2024-02-24T18:48:44.346Z,3.33
2024-02-24T18:50:15.792Z,3.90
2024-02-24T18:52:02.632Z,3.21
2024-02-24T18:53:34.119Z,3.86
2024-02-24T18:55:05.546Z,2.28
2024-02-24T18:56:37.340Z,2.33
2024-02-24T18:58:09.276Z,2.63
2024-02-24T18:59:43.422Z,2.96
2024-02-24T19:01:15.522Z,2.58
2024-02-24T19:02:47.001Z,3.19
2024-02-24T19:04:18.224Z,2.10
2024-02-24T19:05:55.049Z,2.74
2024-02-24T19:07:26.469Z,2.99
2024-02-24T19:10:48.745Z,2.55
2024-02-24T19:12:20.182Z,2.81
2024-02-24T19:13:51.695Z,4.52
2024-02-24T19:15:23.102Z,3.70
2024-02-24T19:16:54.442Z,2.39
2024-02-24T19:18:43.868Z,2.79
2024-02-24T19:20:15.519Z,2.94
2024-02-24T19:21:46.886Z,2.42
2024-02-24T19:23:18.173Z,2.91
2024-02-24T19:25:04.507Z,3.26
2024-02-24T19:26:41.460Z,2.99
2024-02-24T19:28:33.233Z,3.39
2024-02-24T19:30:04.758Z,2.77
2024-02-24T19:31:36.413Z,3.49
2024-02-24T19:33:08.175Z,5.26
2024-02-24T19:34:40.099Z,3.40
2024-02-24T19:36:12.337Z,3.38
2024-02-24T19:37:44.327Z,2.85
2024-02-24T19:39:21.995Z,4.19
2024-02-24T19:40:54.248Z,3.20
2024-02-24T19:42:26.191Z,3.50
2024-02-24T19:43:58.297Z,3.85
2024-02-24T19:45:30.492Z,4.76
2024-02-24T19:47:02.590Z,3.65
2024-02-24T19:48:34.652Z,4.06
2024-02-24T19:50:06.792Z,3.87
2024-02-24T19:51:39.656Z,3.34
2024-02-24T19:53:11.729Z,2.58
2024-02-24T19:54:44.018Z,2.99
2024-02-24T19:56:16.018Z,3.57
2024-02-24T19:57:47.906Z,2.36
2024-02-24T19:59:19.900Z,2.89
2024-02-24T20:00:56.857Z,3.79
2024-02-24T20:02:28.857Z,3.94
2024-02-24T20:04:00.826Z,3.44
2024-02-24T20:05:32.621Z,2.59
2024-02-24T20:07:05.446Z,3.15
2024-02-24T20:08:37.575Z,3.23
2024-02-24T20:10:14.625Z,3.10
2024-02-24T20:11:46.296Z,4.74
2024-02-24T20:13:18.644Z,3.62
2024-02-24T20:14:50.772Z,2.74
2024-02-24T20:16:29.206Z,3.47
2024-02-24T20:18:11.813Z,2.63
2024-02-24T20:19:43.979Z,3.09
2024-02-24T20:21:16.033Z,3.13
2024-02-24T20:22:47.664Z,2.26
2024-02-24T20:24:19.125Z,2.48
2024-02-24T20:25:50.801Z,2.66
2024-02-24T20:27:22.385Z,3.72
2024-02-24T20:29:08.768Z,3.01
2024-02-24T20:30:42.770Z,3.62
2024-02-24T20:32:14.304Z,2.95
2024-02-24T20:34:00.659Z,3.32
2024-02-24T20:35:38.381Z,2.66
2024-02-24T20:37:09.606Z,3.09
2024-02-24T20:38:43.113Z,4.36
2024-02-24T20:40:14.697Z,3.11
2024-02-24T20:42:10.898Z,2.87
2024-02-24T20:43:42.622Z,2.48
2024-02-24T20:45:14.112Z,4.61
2024-02-24T20:46:45.344Z,2.50
2024-02-24T20:48:16.617Z,3.29
2024-02-24T20:49:47.914Z,3.15
2024-02-24T20:51:19.254Z,3.31
2024-02-24T20:52:50.761Z,2.85
2024-02-24T20:54:22.144Z,3.46